createdAt,value
2023-02-02T00:02:05.445Z,96.70
2023-02-02T00:04:19.594Z,96.90
2023-02-02T00:06:28.342Z,97.10
2023-02-02T00:08:34.008Z,96.90
2023-02-02T00:10:38.959Z,97.10
2023-02-02T00:12:44.125Z,97.00
2023-02-02T00:14:48.998Z,97.10
2023-02-02T00:16:55.824Z,97.10
2023-02-02T00:19:03.498Z,97.30
2023-02-02T00:21:11.042Z,97.20
2023-02-02T00:23:16.882Z,97.20
2023-02-02T00:25:22.040Z,97.30
2023-02-02T00:27:27.885Z,97.10
2023-02-02T00:29:35.051Z,97.10
2023-02-02T00:31:41.298Z,97.00
2023-02-02T00:33:48.454Z,97.10
2023-02-02T00:35:55.495Z,97.10
2023-02-02T00:38:02.961Z,97.20
2023-02-02T00:40:10.136Z,97.20
2023-02-02T00:42:15.365Z,97.30
2023-02-02T00:44:44.601Z,97.10
2023-02-02T00:46:50.178Z,96.80
2023-02-02T00:48:55.192Z,96.70
2023-02-02T00:51:00.107Z,96.80
2023-02-02T00:53:09.203Z,96.90
2023-02-02T00:55:16.162Z,96.90
2023-02-02T00:57:21.031Z,97.00
2023-02-02T00:59:26.347Z,97.00
2023-02-02T01:01:31.950Z,97.00
2023-02-02T01:03:36.847Z,97.00
2023-02-02T01:05:41.964Z,97.10
2023-02-02T01:07:47.286Z,97.00
2023-02-02T01:09:55.819Z,96.90
2023-02-02T01:12:00.803Z,97.10
2023-02-02T01:14:05.944Z,96.60
2023-02-02T01:16:13.478Z,96.80
2023-02-02T01:18:18.417Z,96.80
2023-02-02T01:20:24.300Z,96.90
2023-02-02T01:22:29.935Z,96.60
2023-02-02T01:24:35.041Z,96.70
2023-02-02T01:26:43.194Z,96.90
2023-02-02T01:28:48.980Z,96.60
2023-02-02T01:30:54.240Z,96.30
2023-02-02T01:33:00.245Z,96.30
2023-02-02T01:35:05.525Z,96.50
2023-02-02T01:37:11.982Z,96.50
2023-02-02T01:39:17.606Z,96.70
2023-02-02T01:41:27.521Z,96.60
2023-02-02T01:43:59.259Z,96.80
2023-02-02T01:46:04.832Z,96.80
2023-02-02T01:48:09.831Z,96.10
2023-02-02T01:50:17.261Z,96.50
2023-02-02T01:52:24.935Z,96.40
2023-02-02T01:54:36.415Z,96.90
2023-02-02T01:56:48.489Z,96.80
2023-02-02T01:58:56.824Z,96.90
2023-02-02T02:01:01.848Z,96.70
2023-02-02T02:03:14.037Z,96.80
2023-02-02T02:05:25.601Z,96.90
2023-02-02T02:07:31.755Z,96.90
2023-02-02T02:09:37.481Z,97.00
2023-02-02T02:11:42.758Z,97.00
2023-02-02T02:14:00.408Z,97.00
2023-02-02T02:16:23.049Z,96.90
2023-02-02T02:18:45.563Z,96.70
2023-02-02T02:21:34.227Z,96.60
2023-02-02T02:24:53.417Z,96.80
2023-02-02T02:27:29.233Z,96.80
2023-02-02T02:30:14.526Z,96.80
2023-02-02T02:32:32.129Z,96.70
2023-02-02T02:34:54.975Z,96.90
2023-02-02T02:37:12.317Z,96.70
2023-02-02T02:39:25.083Z,96.70
2023-02-02T02:41:36.372Z,96.90
2023-02-02T02:43:46.534Z,96.80
2023-02-02T02:45:52.507Z,97.00
2023-02-02T02:48:00.712Z,97.00
2023-02-02T02:50:07.159Z,96.70
2023-02-02T02:52:13.243Z,96.80
2023-02-02T02:54:22.854Z,96.90
2023-02-02T02:56:36.371Z,97.10
2023-02-02T02:58:53.579Z,97.10
2023-02-02T03:01:12.667Z,97.10
2023-02-02T03:03:34.411Z,96.90
2023-02-02T03:05:51.168Z,96.90
2023-02-02T03:08:09.086Z,96.90
2023-02-02T03:10:17.868Z,96.90
2023-02-02T03:12:22.745Z,97.10
2023-02-02T03:14:28.315Z,97.10
2023-02-02T03:16:33.217Z,96.90
2023-02-02T03:18:41.531Z,96.80
2023-02-02T03:20:49.634Z,97.10
2023-02-02T03:22:54.556Z,97.10
2023-02-02T03:24:59.598Z,97.00
2023-02-02T03:27:04.616Z,97.00
2023-02-02T03:29:10.285Z,96.80
2023-02-02T03:31:15.770Z,96.80
2023-02-02T03:33:21.409Z,96.90
2023-02-02T03:35:29.676Z,97.00
2023-02-02T03:37:34.748Z,97.00
2023-02-02T03:39:40.997Z,97.00
2023-02-02T03:41:46.374Z,96.90
2023-02-02T03:43:51.872Z,97.00
2023-02-02T03:46:02.979Z,97.20
2023-02-02T03:48:09.636Z,97.30
2023-02-02T03:50:15.998Z,97.30
2023-02-02T03:52:23.696Z,97.30
2023-02-02T03:54:28.891Z,97.40
2023-02-02T03:56:37.261Z,97.30
2023-02-02T03:58:42.561Z,97.30
2023-02-02T04:00:47.708Z,97.40
2023-02-02T04:02:53.468Z,97.50
2023-02-02T04:04:59.314Z,97.40
2023-02-02T04:07:04.796Z,97.40
2023-02-02T04:09:12.487Z,97.30
2023-02-02T04:11:17.852Z,97.20
2023-02-02T04:13:23.378Z,97.30
2023-02-02T04:15:29.379Z,97.30
2023-02-02T04:17:35.939Z,97.50
2023-02-02T04:19:41.983Z,97.50
2023-02-02T04:21:46.893Z,97.50
2023-02-02T04:23:52.124Z,97.40
2023-02-02T04:26:00.824Z,97.50
2023-02-02T04:28:05.802Z,97.60
2023-02-02T04:30:13.305Z,97.50
2023-02-02T04:32:19.332Z,97.60
2023-02-02T04:34:24.201Z,97.50
2023-02-02T04:36:29.397Z,97.50
2023-02-02T04:38:34.657Z,97.60
2023-02-02T04:40:42.500Z,97.70
2023-02-02T04:42:50.421Z,97.60
2023-02-02T04:44:55.675Z,97.50
2023-02-02T04:47:00.901Z,97.50
2023-02-02T04:49:06.634Z,97.40
2023-02-02T04:51:16.536Z,97.20
2023-02-02T04:53:21.457Z,97.40
2023-02-02T04:55:27.203Z,97.50
2023-02-02T04:57:32.197Z,97.40
2023-02-02T04:59:42.239Z,97.50
2023-02-02T05:01:48.315Z,97.50
2023-02-02T05:03:54.219Z,97.50
2023-02-02T05:06:04.995Z,97.50
2023-02-02T05:08:12.434Z,97.50
2023-02-02T05:10:18.315Z,97.60
2023-02-02T05:12:23.206Z,97.50
2023-02-02T05:14:28.345Z,97.50
2023-02-02T05:16:35.876Z,97.40
2023-02-02T05:18:40.803Z,97.40
2023-02-02T05:20:45.928Z,97.20
2023-02-02T05:22:52.416Z,97.00
2023-02-02T05:24:58.022Z,97.20
2023-02-02T05:27:03.420Z,97.10
2023-02-02T05:29:09.391Z,97.20
2023-02-02T05:31:14.585Z,97.20
2023-02-02T05:33:22.179Z,97.20
2023-02-02T05:35:27.648Z,97.30
2023-02-02T05:37:32.943Z,97.20
2023-02-02T05:39:38.209Z,97.30
2023-02-02T05:41:43.258Z,97.40
2023-02-02T05:43:48.585Z,97.40
2023-02-02T05:45:53.992Z,97.40
2023-02-02T05:47:58.955Z,97.30
2023-02-02T05:50:07.730Z,97.30
2023-02-02T05:52:18.903Z,97.20
2023-02-02T05:54:24.603Z,97.20
2023-02-02T05:56:29.937Z,97.30
2023-02-02T05:58:34.829Z,97.30
2023-02-02T06:00:40.069Z,97.30
2023-02-02T06:02:45.322Z,97.40
2023-02-02T06:04:50.227Z,97.40
2023-02-02T06:06:58.451Z,97.30
2023-02-02T06:09:03.915Z,97.40
2023-02-02T06:11:13.263Z,97.30
2023-02-02T06:13:19.281Z,97.40
2023-02-02T06:15:25.289Z,97.40
2023-02-02T06:17:30.985Z,97.30
2023-02-02T06:19:36.802Z,97.30
2023-02-02T06:21:42.801Z,97.10
2023-02-02T06:23:50.657Z,97.30
2023-02-02T06:25:56.023Z,97.10
2023-02-02T06:28:02.385Z,97.00
2023-02-02T06:30:09.342Z,97.20
2023-02-02T06:32:14.377Z,97.30
2023-02-02T06:34:20.005Z,97.30
2023-02-02T06:36:26.393Z,97.30
2023-02-02T06:38:31.988Z,97.20
2023-02-02T06:40:39.617Z,97.50
2023-02-02T06:42:47.440Z,97.50
2023-02-02T06:44:52.303Z,97.50
2023-02-02T06:46:57.541Z,97.50
2023-02-02T06:49:02.563Z,97.40
2023-02-02T06:51:08.507Z,97.50
2023-02-02T06:53:13.468Z,97.50
2023-02-02T06:55:18.852Z,97.50
2023-02-02T06:57:26.457Z,97.50
2023-02-02T06:59:31.348Z,97.70
2023-02-02T07:01:36.266Z,97.60
2023-02-02T07:03:42.022Z,97.60
2023-02-02T07:05:47.317Z,97.60
2023-02-02T07:07:52.642Z,97.70
2023-02-02T07:09:58.111Z,97.70
2023-02-02T07:12:03.841Z,97.60
2023-02-02T07:14:12.062Z,97.60
2023-02-02T07:16:18.365Z,97.70
2023-02-02T07:18:24.203Z,97.60
2023-02-02T07:20:29.977Z,97.70
2023-02-02T07:22:35.232Z,97.70
2023-02-02T07:24:40.301Z,97.60
2023-02-02T07:26:45.189Z,97.70
2023-02-02T07:28:51.026Z,97.80
2023-02-02T07:30:59.123Z,97.80
2023-02-02T07:33:04.422Z,97.80
2023-02-02T07:35:10.863Z,97.80
2023-02-02T07:37:15.760Z,97.80
2023-02-02T07:39:20.914Z,97.80
2023-02-02T07:41:26.355Z,97.90
2023-02-02T07:43:31.251Z,97.80
2023-02-02T07:45:37.390Z,97.80
2023-02-02T07:47:45.173Z,97.70
2023-02-02T07:49:50.781Z,97.90
2023-02-02T07:51:56.362Z,97.80
2023-02-02T07:54:01.311Z,97.70
2023-02-02T07:56:14.983Z,97.80
2023-02-02T07:58:19.954Z,97.80
2023-02-02T08:00:26.993Z,97.90
2023-02-02T08:02:32.700Z,97.80
2023-02-02T08:04:40.810Z,97.90
2023-02-02T08:06:46.212Z,97.90
2023-02-02T08:08:52.106Z,97.80
2023-02-02T08:10:57.525Z,97.70
2023-02-02T08:13:03.459Z,97.70
2023-02-02T08:15:12.702Z,97.80
2023-02-02T08:17:18.081Z,97.80
2023-02-02T08:19:23.374Z,97.80
2023-02-02T08:21:31.372Z,97.70
2023-02-02T08:23:36.644Z,97.80
2023-02-02T08:25:41.953Z,97.80
2023-02-02T08:27:47.309Z,97.70
2023-02-02T08:29:52.237Z,97.70
2023-02-02T08:31:57.834Z,97.70
2023-02-02T08:34:03.193Z,97.80
2023-02-02T08:36:13.281Z,97.90
2023-02-02T08:38:21.021Z,97.80
2023-02-02T08:40:26.415Z,97.80
2023-02-02T08:42:31.590Z,97.70
2023-02-02T08:46:00.130Z,97.80
2023-02-02T08:47:02.419Z,98.00
2023-02-02T08:49:07.753Z,97.90
2023-02-02T08:51:15.324Z,97.70
2023-02-02T08:53:23.503Z,97.80
2023-02-02T08:55:29.260Z,97.70
2023-02-02T08:57:34.949Z,97.90
2023-02-02T08:59:39.860Z,97.80
2023-02-02T09:01:45.206Z,97.90
2023-02-02T09:03:50.626Z,97.80
2023-02-02T09:05:56.165Z,97.80
2023-02-02T09:08:01.177Z,97.80
2023-02-02T09:10:10.519Z,97.80
2023-02-02T09:12:15.858Z,97.80
2023-02-02T09:14:21.113Z,97.80
2023-02-02T09:16:27.499Z,97.70
2023-02-02T09:18:33.237Z,97.80
2023-02-02T09:20:39.207Z,97.70
2023-02-02T09:22:44.128Z,97.80
2023-02-02T09:24:49.066Z,97.70
2023-02-02T09:26:56.798Z,97.70
2023-02-02T09:29:04.428Z,97.70
2023-02-02T09:31:10.571Z,97.70
2023-02-02T09:33:15.484Z,97.60
2023-02-02T09:35:20.976Z,97.80
2023-02-02T09:37:25.920Z,97.60
2023-02-02T09:39:31.019Z,97.70
2023-02-02T09:42:19.139Z,97.60
2023-02-02T09:44:43.079Z,97.60
2023-02-02T09:46:59.268Z,97.60
2023-02-02T09:49:08.643Z,97.60
2023-02-02T09:51:21.587Z,97.70
2023-02-02T09:53:52.948Z,97.70
2023-02-02T09:56:06.963Z,97.60
2023-02-02T09:58:22.242Z,97.60
2023-02-02T10:00:34.768Z,97.60
2023-02-02T10:02:45.964Z,97.70
2023-02-02T10:04:58.199Z,97.60
2023-02-02T10:07:11.013Z,97.60
2023-02-02T10:09:31.765Z,97.50
2023-02-02T10:11:45.561Z,97.50
2023-02-02T10:13:53.244Z,97.70
2023-02-02T10:16:05.873Z,97.70
2023-02-02T10:18:21.402Z,97.60
2023-02-02T10:20:39.872Z,97.60
2023-02-02T10:22:46.002Z,97.50
2023-02-02T10:24:50.951Z,97.50
2023-02-02T10:26:59.317Z,97.60
2023-02-02T10:29:19.138Z,97.60
2023-02-02T10:31:41.963Z,97.60
2023-02-02T10:33:52.263Z,97.50
2023-02-02T10:36:06.974Z,97.50
2023-02-02T10:38:23.626Z,97.40
2023-02-02T10:40:45.236Z,97.60
2023-02-02T10:43:27.834Z,97.60
2023-02-02T10:45:37.849Z,97.60
2023-02-02T10:47:42.878Z,97.50
2023-02-02T10:49:50.177Z,97.60
2023-02-02T10:52:07.364Z,97.50
2023-02-02T10:54:36.208Z,97.50
2023-02-02T10:56:54.333Z,97.60
2023-02-02T10:59:07.335Z,97.40
2023-02-02T11:01:18.550Z,97.50
2023-02-02T11:03:28.150Z,97.60
2023-02-02T11:05:47.134Z,97.40
2023-02-02T11:07:54.693Z,97.50
2023-02-02T11:09:59.757Z,97.60
2023-02-02T11:12:16.033Z,97.50
2023-02-02T11:14:35.174Z,97.60
2023-02-02T11:16:48.390Z,97.50
2023-02-02T11:18:53.563Z,97.60
2023-02-02T11:21:00.261Z,97.60
2023-02-02T11:23:07.584Z,97.50
2023-02-02T11:25:33.162Z,97.50
2023-02-02T11:27:44.909Z,97.50
2023-02-02T11:29:53.940Z,97.50
2023-02-02T11:32:01.909Z,97.40
2023-02-02T11:34:20.851Z,97.50
2023-02-02T11:36:25.852Z,97.60
2023-02-02T11:38:31.738Z,97.40
2023-02-02T11:40:40.834Z,97.40
2023-02-02T11:42:49.075Z,97.40
2023-02-02T11:44:56.922Z,97.60
2023-02-02T11:47:07.558Z,97.50
2023-02-02T11:49:20.342Z,97.40
2023-02-02T11:51:28.534Z,97.50
2023-02-02T11:53:36.622Z,97.40
2023-02-02T11:55:45.914Z,97.60
2023-02-02T11:58:27.638Z,97.60
2023-02-02T12:00:34.396Z,97.40
2023-02-02T12:02:49.645Z,97.50
2023-02-02T12:04:57.193Z,97.50
2023-02-02T12:07:02.413Z,97.50
2023-02-02T12:09:16.841Z,97.50
2023-02-02T12:11:42.677Z,97.50
2023-02-02T12:14:03.772Z,97.50
2023-02-02T12:16:26.663Z,97.50
2023-02-02T12:18:51.938Z,97.50
2023-02-02T12:21:05.350Z,97.70
2023-02-02T12:23:27.492Z,97.50
2023-02-02T12:26:21.169Z,97.70
2023-02-02T12:28:46.431Z,97.60
2023-02-02T12:31:00.197Z,97.50
2023-02-02T12:33:20.440Z,97.70
2023-02-02T12:35:57.145Z,97.70
2023-02-02T12:38:13.713Z,97.50
2023-02-02T12:40:39.636Z,97.40
2023-02-02T12:43:04.887Z,97.60
2023-02-02T12:45:46.123Z,97.50
2023-02-02T12:48:06.792Z,97.30
2023-02-02T12:50:28.591Z,97.50
2023-02-02T12:52:51.979Z,97.40
2023-02-02T12:55:25.070Z,97.50
2023-02-02T12:57:44.849Z,97.50
2023-02-02T13:00:55.909Z,97.40
2023-02-02T13:03:17.656Z,97.50
2023-02-02T13:05:42.353Z,97.40
2023-02-02T13:07:54.210Z,97.50
2023-02-02T13:10:21.054Z,97.40
2023-02-02T13:12:29.997Z,97.50
2023-02-02T13:14:39.805Z,97.30
2023-02-02T13:16:50.540Z,97.40
2023-02-02T13:19:02.960Z,97.40
2023-02-02T13:21:16.791Z,97.50
2023-02-02T13:23:31.035Z,97.50
2023-02-02T13:25:45.625Z,97.60
2023-02-02T13:27:52.985Z,97.40
2023-02-02T13:30:05.859Z,97.40
2023-02-02T13:32:21.647Z,97.60
2023-02-02T13:34:32.337Z,97.50
2023-02-02T13:36:39.060Z,97.50
2023-02-02T13:38:46.931Z,97.50
2023-02-02T13:40:54.547Z,97.60
2023-02-02T13:43:09.188Z,97.50
2023-02-02T13:45:36.521Z,97.70
2023-02-02T13:47:51.307Z,97.50
2023-02-02T13:50:05.695Z,97.60
2023-02-02T13:52:43.332Z,97.70
2023-02-02T13:55:32.059Z,97.70
2023-02-02T13:58:12.970Z,97.70
2023-02-02T14:00:22.382Z,97.70
2023-02-02T14:02:42.517Z,97.70
2023-02-02T14:04:57.264Z,97.70
2023-02-02T14:07:05.629Z,97.70
2023-02-02T14:09:21.361Z,97.60
2023-02-02T14:11:34.477Z,97.50
2023-02-02T14:14:01.592Z,97.60
2023-02-02T14:16:11.177Z,97.60
2023-02-02T14:18:37.058Z,97.70
2023-02-02T14:20:49.935Z,97.50
2023-02-02T14:22:55.833Z,97.50
2023-02-02T14:25:01.932Z,97.70
2023-02-02T14:27:58.404Z,97.60
2023-02-02T14:30:04.022Z,97.60
2023-02-02T14:32:35.531Z,97.50
2023-02-02T14:34:42.497Z,97.50
2023-02-02T14:37:15.162Z,97.60
2023-02-02T14:39:27.611Z,97.50
2023-02-02T14:42:23.902Z,97.50
2023-02-02T14:44:28.981Z,97.50
2023-02-02T14:46:48.819Z,97.40
2023-02-02T14:49:16.047Z,97.50
2023-02-02T14:51:24.454Z,97.40
2023-02-02T14:53:36.617Z,97.40
2023-02-02T14:58:04.540Z,97.50
2023-02-02T15:00:24.683Z,97.40
2023-02-02T15:02:36.982Z,97.50
2023-02-02T15:04:42.477Z,97.60
2023-02-02T15:06:47.536Z,97.50
2023-02-02T15:09:50.093Z,97.50
2023-02-02T15:12:36.452Z,97.50
2023-02-02T15:14:47.804Z,97.30
2023-02-02T15:16:53.815Z,97.40
2023-02-02T15:19:11.202Z,97.40
2023-02-02T15:21:24.027Z,97.50
2023-02-02T15:23:36.113Z,97.40
2023-02-02T15:25:48.984Z,97.40
2023-02-02T15:28:05.369Z,97.50
2023-02-02T15:30:17.084Z,97.60
2023-02-02T15:32:28.342Z,97.60
2023-02-02T15:34:43.712Z,97.60
2023-02-02T15:36:52.632Z,97.50
2023-02-02T15:39:04.025Z,97.60
2023-02-02T15:41:23.139Z,97.70
2023-02-02T15:43:32.063Z,97.70
2023-02-02T15:45:45.865Z,97.50
2023-02-02T15:47:50.808Z,97.50
2023-02-02T15:49:55.859Z,97.50
2023-02-02T15:52:04.139Z,97.60
2023-02-02T15:54:25.911Z,97.50
2023-02-02T15:56:32.843Z,97.70
2023-02-02T15:58:42.295Z,97.70
2023-02-02T16:00:47.877Z,97.60
2023-02-02T16:02:57.876Z,97.60
2023-02-02T16:05:02.789Z,97.60
2023-02-02T16:07:13.261Z,97.70
2023-02-02T16:09:30.127Z,97.60
2023-02-02T16:11:35.114Z,97.60
2023-02-02T16:13:45.033Z,97.70
2023-02-02T16:15:59.716Z,97.70
2023-02-02T16:18:08.580Z,97.80
2023-02-02T16:20:18.537Z,97.60
2023-02-02T16:22:26.993Z,97.70
2023-02-02T16:24:36.701Z,97.80
2023-02-02T16:26:42.450Z,97.70
2023-02-02T16:28:50.363Z,97.60
2023-02-02T16:30:56.300Z,97.70
2023-02-02T16:33:01.289Z,97.80
2023-02-02T16:35:09.788Z,97.70
2023-02-02T16:37:20.322Z,97.70
2023-02-02T16:39:26.837Z,97.70
2023-02-02T16:41:35.886Z,97.80
2023-02-02T16:43:42.714Z,97.90
2023-02-02T16:45:53.873Z,97.90
2023-02-02T16:48:35.993Z,97.90
2023-02-02T16:50:41.027Z,97.80
2023-02-02T16:52:55.332Z,97.90
2023-02-02T16:55:02.262Z,97.80
2023-02-02T16:57:08.090Z,97.90
2023-02-02T16:59:22.888Z,97.80
2023-02-02T17:01:42.065Z,97.80
2023-02-02T17:03:56.019Z,97.80
2023-02-02T17:06:01.492Z,97.80
2023-02-02T17:08:08.809Z,97.90
2023-02-02T17:10:25.235Z,98.00
2023-02-02T17:12:35.598Z,98.00
2023-02-02T17:14:53.448Z,97.80
2023-02-02T17:17:01.572Z,97.90
2023-02-02T17:19:06.940Z,98.00
2023-02-02T17:21:19.380Z,98.00
2023-02-02T17:23:24.960Z,98.00
2023-02-02T17:25:35.705Z,97.90
2023-02-02T17:27:40.611Z,97.90
2023-02-02T17:29:45.553Z,97.90
2023-02-02T17:31:52.057Z,97.90
2023-02-02T17:33:59.597Z,98.00
2023-02-02T17:36:05.097Z,98.00
2023-02-02T17:38:09.999Z,98.00
2023-02-02T17:40:17.065Z,98.00
2023-02-02T17:42:27.720Z,97.90
2023-02-02T17:44:33.735Z,98.00
2023-02-02T17:46:40.244Z,98.00
2023-02-02T17:48:45.328Z,98.00
2023-02-02T17:50:53.579Z,98.00
2023-02-02T17:52:59.113Z,98.00
2023-02-02T17:55:04.003Z,98.10
2023-02-02T17:57:08.865Z,98.00
2023-02-02T17:59:14.276Z,98.00
2023-02-02T18:01:19.310Z,98.00
2023-02-02T18:03:28.796Z,98.00
2023-02-02T18:05:33.696Z,98.00
2023-02-02T18:07:41.185Z,98.10
2023-02-02T18:09:46.062Z,98.00
2023-02-02T18:11:51.049Z,98.00
2023-02-02T18:13:56.956Z,98.00
2023-02-02T18:16:03.039Z,98.10
2023-02-02T18:18:08.230Z,98.10
2023-02-02T18:20:17.369Z,98.10
2023-02-02T18:22:22.379Z,98.10
2023-02-02T18:24:30.480Z,98.00
2023-02-02T18:26:35.528Z,98.10
2023-02-02T18:28:42.101Z,98.00
2023-02-02T18:30:47.408Z,98.10
2023-02-02T18:32:52.539Z,98.10
2023-02-02T18:34:57.770Z,98.10
2023-02-02T18:37:03.016Z,98.10
2023-02-02T18:39:09.527Z,98.00
2023-02-02T18:41:18.251Z,98.10
2023-02-02T18:43:23.161Z,98.10
2023-02-02T18:45:28.830Z,98.10
2023-02-02T18:47:33.871Z,98.10
2023-02-02T18:49:38.771Z,98.10
2023-02-02T18:51:43.650Z,98.10
2023-02-02T18:53:52.572Z,98.10
2023-02-02T18:55:57.410Z,98.00
2023-02-02T18:58:07.914Z,98.10
2023-02-02T19:00:15.937Z,98.10
2023-02-02T19:02:22.648Z,98.10
2023-02-02T19:04:27.682Z,98.10
2023-02-02T19:06:45.065Z,98.10
2023-02-02T19:08:49.927Z,98.10
2023-02-02T19:11:02.973Z,98.00
2023-02-02T19:13:19.217Z,98.00
2023-02-02T19:15:26.749Z,98.10
2023-02-02T19:17:33.288Z,98.10
2023-02-02T19:19:40.462Z,98.10
2023-02-02T19:21:46.302Z,98.00
2023-02-02T19:23:51.382Z,98.10
2023-02-02T19:25:58.439Z,98.10
2023-02-02T19:28:18.351Z,98.10
2023-02-02T19:30:26.192Z,98.10
2023-02-02T19:32:36.200Z,98.00
2023-02-02T19:34:41.549Z,98.10
2023-02-02T19:36:49.345Z,98.20
2023-02-02T19:39:01.670Z,98.10
2023-02-02T19:41:20.297Z,98.10
2023-02-02T19:43:33.145Z,98.10
2023-02-02T19:45:39.728Z,98.10
2023-02-02T19:47:47.104Z,98.10
2023-02-02T19:49:53.141Z,98.00
2023-02-02T19:51:59.626Z,98.20
2023-02-02T19:54:04.775Z,98.10
2023-02-02T19:56:27.235Z,98.10
2023-02-02T19:58:38.921Z,98.10
2023-02-02T20:00:46.895Z,98.10
2023-02-02T20:03:02.076Z,98.30
2023-02-02T20:05:19.764Z,98.20
2023-02-02T20:07:24.720Z,98.20
2023-02-02T20:09:36.127Z,98.20
2023-02-02T20:11:44.301Z,98.20
2023-02-02T20:13:53.244Z,98.10
2023-02-02T20:16:03.872Z,98.20
2023-02-02T20:18:19.871Z,98.20
2023-02-02T20:20:29.929Z,98.20
2023-02-02T20:22:35.425Z,98.20
2023-02-02T20:24:42.291Z,98.20
2023-02-02T20:26:48.359Z,98.20
2023-02-02T20:28:58.860Z,98.10
2023-02-02T20:31:07.038Z,98.20
2023-02-02T20:33:27.434Z,98.10
2023-02-02T20:35:39.530Z,98.20
2023-02-02T20:37:45.472Z,98.20
2023-02-02T20:39:54.249Z,98.30
2023-02-02T20:41:59.694Z,98.20
2023-02-02T20:44:07.265Z,98.10
2023-02-02T20:46:12.891Z,98.10
2023-02-02T20:48:17.968Z,98.10
2023-02-02T20:50:25.422Z,98.00
2023-02-02T20:52:31.417Z,98.00
2023-02-02T20:54:37.266Z,97.90
2023-02-02T20:56:42.253Z,98.00
2023-02-02T20:58:47.255Z,97.70
2023-02-02T21:00:55.008Z,97.80
2023-02-02T21:03:00.173Z,97.60
2023-02-02T21:05:06.806Z,97.80
2023-02-02T21:07:12.249Z,97.80
2023-02-02T21:09:18.228Z,97.80
2023-02-02T21:11:23.635Z,97.70
2023-02-02T21:13:28.969Z,97.70
2023-02-02T21:15:34.315Z,97.50
2023-02-02T21:17:44.078Z,97.60
2023-02-02T21:19:49.213Z,97.60
2023-02-02T21:21:54.240Z,97.40
2023-02-02T21:24:00.820Z,97.20
2023-02-02T21:26:06.615Z,97.20
2023-02-02T21:28:11.579Z,96.80
2023-02-02T21:30:17.293Z,96.90
2023-02-02T21:32:22.325Z,97.00
2023-02-02T21:34:30.428Z,96.80
2023-02-02T21:36:38.851Z,97.00
2023-02-02T21:38:43.848Z,97.00
2023-02-02T21:40:50.346Z,97.20
2023-02-02T21:42:55.442Z,97.10
2023-02-02T21:45:26.911Z,97.20
2023-02-02T21:47:38.119Z,96.90
2023-02-02T21:49:45.761Z,97.10
2023-02-02T21:51:50.832Z,97.00
2023-02-02T21:53:55.851Z,96.70
2023-02-02T21:56:03.129Z,96.70
2023-02-02T21:58:21.961Z,97.10
2023-02-02T22:00:34.997Z,97.00
2023-02-02T22:02:44.960Z,96.90
2023-02-02T22:04:53.384Z,96.90
2023-02-02T22:07:04.268Z,97.10
2023-02-02T22:09:20.067Z,97.00
2023-02-02T22:11:32.101Z,97.00
2023-02-02T22:13:38.649Z,97.20
2023-02-02T22:15:46.083Z,97.20
2023-02-02T22:17:51.185Z,97.10
2023-02-02T22:20:04.146Z,97.00
2023-02-02T22:22:21.114Z,97.00
2023-02-02T22:24:28.012Z,97.10
2023-02-02T22:26:37.279Z,97.00
2023-02-02T22:28:43.226Z,96.90
2023-02-02T22:30:48.428Z,97.20
2023-02-02T22:32:54.407Z,96.90
2023-02-02T22:35:02.726Z,96.80
2023-02-02T22:37:07.725Z,96.90
2023-02-02T22:39:12.689Z,97.00
2023-02-02T22:41:18.102Z,96.90
2023-02-02T22:43:24.537Z,96.40
2023-02-02T22:45:29.911Z,96.70
2023-02-02T22:47:34.944Z,96.90
2023-02-02T22:49:39.927Z,96.50
2023-02-02T22:51:47.772Z,96.50
2023-02-02T22:53:52.750Z,96.80
2023-02-02T22:55:59.006Z,96.80
2023-02-02T22:58:04.454Z,96.60
2023-02-02T23:00:15.412Z,96.80
2023-02-02T23:02:21.359Z,96.90
2023-02-02T23:04:26.458Z,96.90
2023-02-02T23:06:31.441Z,96.70
2023-02-02T23:08:39.218Z,96.80
2023-02-02T23:10:44.348Z,96.90
2023-02-02T23:12:51.164Z,96.90
2023-02-02T23:14:56.126Z,96.90
2023-02-02T23:17:01.555Z,97.00
2023-02-02T23:19:07.459Z,96.60
2023-02-02T23:21:12.425Z,96.70
2023-02-02T23:23:18.050Z,96.80
2023-02-02T23:25:25.666Z,96.80
2023-02-02T23:27:31.618Z,97.00
2023-02-02T23:29:36.869Z,96.60
2023-02-02T23:31:42.203Z,96.80
2023-02-02T23:33:47.606Z,96.80
2023-02-02T23:35:52.561Z,96.90
2023-02-02T23:37:57.562Z,96.40
2023-02-02T23:40:02.555Z,96.40
2023-02-02T23:42:10.474Z,96.40
2023-02-02T23:44:15.444Z,96.70
2023-02-02T23:46:20.823Z,96.90
2023-02-02T23:48:25.871Z,96.80
2023-02-02T23:50:31.281Z,96.90
2023-02-02T23:52:39.802Z,97.00
2023-02-02T23:54:45.675Z,97.10
2023-02-02T23:56:51.955Z,97.20
2023-02-02T23:59:00.196Z,97.20
